sensor_id;sensor_type;location;lat;lon;timestamp;pressure;altitude;pressure_sealevel;temperature;humidity
26083;BME280;13848;49.018;12.078;2024-03-02T00:00:00;96664.03;;;6.16;94.22
26083;BME280;13848;49.018;12.078;2024-03-02T00:02:27;96660.69;;;6.21;93.95
26083;BME280;13848;49.018;12.078;2024-03-02T00:04:52;96659.94;;;6.32;93.56
26083;BME280;13848;49.018;12.078;2024-03-02T00:07:20;96661.97;;;6.36;93.93
26083;BME280;13848;49.018;12.078;2024-03-02T00:09:46;96655.88;;;6.29;93.90
26083;BME280;13848;49.018;12.078;2024-03-02T00:12:15;96656.34;;;6.20;93.75
26083;BME280;13848;49.018;12.078;2024-03-02T00:14:41;96660.19;;;6.05;95.25
26083;BME280;13848;49.018;12.078;2024-03-02T00:17:17;96653.09;;;6.18;94.77
26083;BME280;13848;49.018;12.078;2024-03-02T00:19:43;96658.38;;;6.24;94.23
26083;BME280;13848;49.018;12.078;2024-03-02T00:22:09;96661.69;;;6.20;94.75
26083;BME280;13848;49.018;12.078;2024-03-02T00:24:36;96655.03;;;6.29;94.33
26083;BME280;13848;49.018;12.078;2024-03-02T00:27:04;96654.66;;;6.00;95.85
26083;BME280;13848;49.018;12.078;2024-03-02T00:29:31;96654.94;;;5.92;96.69
26083;BME280;13848;49.018;12.078;2024-03-02T00:31:57;96658.22;;;5.94;96.66
26083;BME280;13848;49.018;12.078;2024-03-02T00:34:23;96656.91;;;6.03;96.75
26083;BME280;13848;49.018;12.078;2024-03-02T00:36:49;96659.88;;;5.88;96.68
26083;BME280;13848;49.018;12.078;2024-03-02T00:39:16;96660.19;;;6.05;96.71
26083;BME280;13848;49.018;12.078;2024-03-02T00:41:43;96664.06;;;6.09;96.25
26083;BME280;13848;49.018;12.078;2024-03-02T00:44:12;96657.63;;;6.17;95.67
26083;BME280;13848;49.018;12.078;2024-03-02T00:46:39;96653.31;;;6.16;95.32
26083;BME280;13848;49.018;12.078;2024-03-02T00:49:12;96655.47;;;6.26;94.98
26083;BME280;13848;49.018;12.078;2024-03-02T00:51:39;96649.97;;;6.21;96.32
26083;BME280;13848;49.018;12.078;2024-03-02T00:54:07;96648.13;;;6.21;95.15
26083;BME280;13848;49.018;12.078;2024-03-02T00:56:34;96648.16;;;6.14;96.47
26083;BME280;13848;49.018;12.078;2024-03-02T00:59:01;96660.63;;;6.02;96.66
26083;BME280;13848;49.018;12.078;2024-03-02T01:01:27;96653.28;;;5.91;98.11
26083;BME280;13848;49.018;12.078;2024-03-02T01:03:53;96651.63;;;5.90;98.15
26083;BME280;13848;49.018;12.078;2024-03-02T01:06:19;96648.94;;;5.90;98.27
26083;BME280;13848;49.018;12.078;2024-03-02T01:08:45;96653.72;;;5.88;98.79
26083;BME280;13848;49.018;12.078;2024-03-02T01:11:11;96649.41;;;5.87;98.09
26083;BME280;13848;49.018;12.078;2024-03-02T01:13:37;96645.44;;;5.96;98.19
26083;BME280;13848;49.018;12.078;2024-03-02T01:16:05;96652.59;;;6.02;98.28
26083;BME280;13848;49.018;12.078;2024-03-02T01:18:31;96648.34;;;5.95;98.69
26083;BME280;13848;49.018;12.078;2024-03-02T01:20:57;96647.91;;;5.98;98.51
26083;BME280;13848;49.018;12.078;2024-03-02T01:23:23;96646.25;;;5.97;98.35
26083;BME280;13848;49.018;12.078;2024-03-02T01:25:49;96643.59;;;5.90;98.58
26083;BME280;13848;49.018;12.078;2024-03-02T01:28:16;96636.59;;;5.96;98.69
26083;BME280;13848;49.018;12.078;2024-03-02T01:30:42;96644.84;;;5.94;98.80
26083;BME280;13848;49.018;12.078;2024-03-02T01:33:09;96636.81;;;5.94;99.18
26083;BME280;13848;49.018;12.078;2024-03-02T01:35:35;96633.72;;;5.97;98.44
26083;BME280;13848;49.018;12.078;2024-03-02T01:38:01;96642.06;;;6.07;98.12
26083;BME280;13848;49.018;12.078;2024-03-02T01:40:27;96640.75;;;6.17;97.48
26083;BME280;13848;49.018;12.078;2024-03-02T01:42:53;96637.63;;;6.20;97.44
26083;BME280;13848;49.018;12.078;2024-03-02T01:45:19;96634.75;;;6.21;97.63
26083;BME280;13848;49.018;12.078;2024-03-02T01:47:45;96631.28;;;6.14;97.74
26083;BME280;13848;49.018;12.078;2024-03-02T01:50:13;96636.28;;;6.10;97.40
26083;BME280;13848;49.018;12.078;2024-03-02T01:52:39;96635.41;;;6.17;98.10
26083;BME280;13848;49.018;12.078;2024-03-02T01:55:06;96638.00;;;6.23;97.59
26083;BME280;13848;49.018;12.078;2024-03-02T01:57:32;96636.28;;;6.10;98.04
26083;BME280;13848;49.018;12.078;2024-03-02T01:59:58;96635.53;;;6.03;97.78
26083;BME280;13848;49.018;12.078;2024-03-02T02:02:24;96631.34;;;6.07;97.99
26083;BME280;13848;49.018;12.078;2024-03-02T02:04:50;96639.22;;;6.02;99.09
26083;BME280;13848;49.018;12.078;2024-03-02T02:07:17;96637.56;;;6.01;98.88
26083;BME280;13848;49.018;12.078;2024-03-02T02:09:44;96641.75;;;5.97;99.53
26083;BME280;13848;49.018;12.078;2024-03-02T02:12:10;96634.72;;;5.96;99.05
26083;BME280;13848;49.018;12.078;2024-03-02T02:14:36;96633.19;;;6.07;99.23
26083;BME280;13848;49.018;12.078;2024-03-02T02:17:02;96638.78;;;6.05;98.76
26083;BME280;13848;49.018;12.078;2024-03-02T02:19:28;96635.53;;;6.03;98.77
26083;BME280;13848;49.018;12.078;2024-03-02T02:21:56;96629.28;;;6.09;98.93
26083;BME280;13848;49.018;12.078;2024-03-02T02:24:22;96631.81;;;6.04;99.30
26083;BME280;13848;49.018;12.078;2024-03-02T02:26:47;96633.91;;;5.96;99.49
26083;BME280;13848;49.018;12.078;2024-03-02T02:29:13;96631.88;;;5.91;100.00
26083;BME280;13848;49.018;12.078;2024-03-02T02:31:41;96633.94;;;5.89;99.96
26083;BME280;13848;49.018;12.078;2024-03-02T02:34:07;96635.22;;;5.86;100.00
26083;BME280;13848;49.018;12.078;2024-03-02T02:36:33;96628.56;;;5.96;100.00
26083;BME280;13848;49.018;12.078;2024-03-02T02:39:02;96630.00;;;5.98;99.19
26083;BME280;13848;49.018;12.078;2024-03-02T02:41:29;96631.88;;;5.98;99.26
26083;BME280;13848;49.018;12.078;2024-03-02T02:43:55;96622.84;;;5.92;99.94
26083;BME280;13848;49.018;12.078;2024-03-02T02:46:21;96624.06;;;5.90;100.00
26083;BME280;13848;49.018;12.078;2024-03-02T02:48:47;96617.03;;;5.95;99.51
26083;BME280;13848;49.018;12.078;2024-03-02T02:51:13;96620.69;;;5.76;100.00
26083;BME280;13848;49.018;12.078;2024-03-02T02:53:39;96622.03;;;5.85;100.00
26083;BME280;13848;49.018;12.078;2024-03-02T02:56:07;96621.22;;;5.84;100.00
26083;BME280;13848;49.018;12.078;2024-03-02T02:58:33;96615.00;;;5.91;100.00
26083;BME280;13848;49.018;12.078;2024-03-02T03:00:59;96619.13;;;5.93;100.00
26083;BME280;13848;49.018;12.078;2024-03-02T03:03:25;96616.97;;;6.02;100.00
26083;BME280;13848;49.018;12.078;2024-03-02T03:05:51;96616.50;;;6.11;99.55
26083;BME280;13848;49.018;12.078;2024-03-02T03:08:16;96626.75;;;6.14;98.90
26083;BME280;13848;49.018;12.078;2024-03-02T03:10:42;96619.50;;;5.97;99.74
26083;BME280;13848;49.018;12.078;2024-03-02T03:13:10;96627.97;;;5.94;100.00
26083;BME280;13848;49.018;12.078;2024-03-02T03:15:36;96623.38;;;6.01;100.00
26083;BME280;13848;49.018;12.078;2024-03-02T03:18:02;96625.81;;;6.02;99.83
26083;BME280;13848;49.018;12.078;2024-03-02T03:20:29;96630.09;;;6.10;100.00
26083;BME280;13848;49.018;12.078;2024-03-02T03:22:55;96616.88;;;6.15;99.05
26083;BME280;13848;49.018;12.078;2024-03-02T03:25:21;96621.41;;;6.14;99.51
26083;BME280;13848;49.018;12.078;2024-03-02T03:27:47;96624.28;;;6.13;99.69
26083;BME280;13848;49.018;12.078;2024-03-02T03:30:14;96625.78;;;6.09;99.12
26083;BME280;13848;49.018;12.078;2024-03-02T03:32:40;96618.94;;;6.13;99.29
26083;BME280;13848;49.018;12.078;2024-03-02T03:35:07;96621.56;;;6.20;98.75
26083;BME280;13848;49.018;12.078;2024-03-02T03:37:33;96618.88;;;6.20;98.73
26083;BME280;13848;49.018;12.078;2024-03-02T03:39:59;96620.53;;;6.21;98.76
26083;BME280;13848;49.018;12.078;2024-03-02T03:42:25;96621.94;;;6.23;98.88
26083;BME280;13848;49.018;12.078;2024-03-02T03:44:51;96617.88;;;6.21;98.86
26083;BME280;13848;49.018;12.078;2024-03-02T03:47:18;96616.03;;;6.14;99.00
26083;BME280;13848;49.018;12.078;2024-03-02T03:49:44;96620.81;;;6.12;99.34
26083;BME280;13848;49.018;12.078;2024-03-02T03:52:10;96620.56;;;6.14;99.19
26083;BME280;13848;49.018;12.078;2024-03-02T03:54:36;96619.41;;;6.10;99.72
26083;BME280;13848;49.018;12.078;2024-03-02T03:57:02;96620.97;;;6.18;98.84
26083;BME280;13848;49.018;12.078;2024-03-02T03:59:28;96617.72;;;6.16;99.02
26083;BME280;13848;49.018;12.078;2024-03-02T04:01:54;96619.31;;;5.98;100.00
26083;BME280;13848;49.018;12.078;2024-03-02T04:04:21;96625.50;;;6.17;99.23
26083;BME280;13848;49.018;12.078;2024-03-02T04:06:47;96624.84;;;6.22;98.66
26083;BME280;13848;49.018;12.078;2024-03-02T04:09:13;96632.88;;;6.22;99.13
26083;BME280;13848;49.018;12.078;2024-03-02T04:11:39;96632.31;;;5.88;100.00
26083;BME280;13848;49.018;12.078;2024-03-02T04:14:05;96633.09;;;5.95;100.00
26083;BME280;13848;49.018;12.078;2024-03-02T04:16:31;96634.56;;;5.91;100.00
26083;BME280;13848;49.018;12.078;2024-03-02T04:18:57;96633.44;;;6.05;100.00
26083;BME280;13848;49.018;12.078;2024-03-02T04:21:24;96640.88;;;6.03;100.00
26083;BME280;13848;49.018;12.078;2024-03-02T04:23:50;96637.75;;;6.06;100.00
26083;BME280;13848;49.018;12.078;2024-03-02T04:26:16;96639.53;;;6.12;100.00
26083;BME280;13848;49.018;12.078;2024-03-02T04:28:42;96637.75;;;6.06;100.00
26083;BME280;13848;49.018;12.078;2024-03-02T04:31:08;96643.69;;;6.08;100.00
26083;BME280;13848;49.018;12.078;2024-03-02T04:33:34;96644.47;;;6.16;99.80
26083;BME280;13848;49.018;12.078;2024-03-02T04:36:00;96651.06;;;6.13;100.00
26083;BME280;13848;49.018;12.078;2024-03-02T04:38:27;96644.25;;;5.92;100.00
26083;BME280;13848;49.018;12.078;2024-03-02T04:40:53;96651.94;;;6.07;100.00
26083;BME280;13848;49.018;12.078;2024-03-02T04:43:19;96644.94;;;6.06;99.91
26083;BME280;13848;49.018;12.078;2024-03-02T04:45:45;96654.34;;;6.15;99.91
26083;BME280;13848;49.018;12.078;2024-03-02T04:48:11;96653.25;;;6.23;99.13
26083;BME280;13848;49.018;12.078;2024-03-02T04:50:37;96662.91;;;6.24;99.43
26083;BME280;13848;49.018;12.078;2024-03-02T04:53:03;96659.66;;;6.22;99.62
26083;BME280;13848;49.018;12.078;2024-03-02T04:55:30;96661.00;;;6.06;100.00
26083;BME280;13848;49.018;12.078;2024-03-02T04:57:56;96670.44;;;6.08;100.00
26083;BME280;13848;49.018;12.078;2024-03-02T05:00:22;96658.88;;;6.14;99.71
26083;BME280;13848;49.018;12.078;2024-03-02T05:02:49;96656.56;;;6.18;99.63
26083;BME280;13848;49.018;12.078;2024-03-02T05:05:15;96659.19;;;6.00;100.00
26083;BME280;13848;49.018;12.078;2024-03-02T05:07:40;96661.97;;;5.86;100.00
26083;BME280;13848;49.018;12.078;2024-03-02T05:10:07;96666.34;;;6.06;100.00
26083;BME280;13848;49.018;12.078;2024-03-02T05:12:34;96666.25;;;6.19;99.98
26083;BME280;13848;49.018;12.078;2024-03-02T05:15:00;96662.97;;;6.17;100.00
26083;BME280;13848;49.018;12.078;2024-03-02T05:17:26;96664.22;;;6.14;100.00
26083;BME280;13848;49.018;12.078;2024-03-02T05:19:52;96665.09;;;6.08;100.00
26083;BME280;13848;49.018;12.078;2024-03-02T05:22:18;96664.22;;;6.14;99.81
26083;BME280;13848;49.018;12.078;2024-03-02T05:24:44;96675.72;;;6.22;100.00
26083;BME280;13848;49.018;12.078;2024-03-02T05:27:10;96671.53;;;6.26;99.75
26083;BME280;13848;49.018;12.078;2024-03-02T05:29:38;96673.84;;;5.97;100.00
26083;BME280;13848;49.018;12.078;2024-03-02T05:32:04;96678.38;;;5.90;100.00
26083;BME280;13848;49.018;12.078;2024-03-02T05:34:29;96673.00;;;5.97;100.00
26083;BME280;13848;49.018;12.078;2024-03-02T05:36:55;96679.09;;;6.10;100.00
26083;BME280;13848;49.018;12.078;2024-03-02T05:39:21;96668.81;;;6.07;99.56
26083;BME280;13848;49.018;12.078;2024-03-02T05:41:47;96677.88;;;6.06;100.00
26083;BME280;13848;49.018;12.078;2024-03-02T05:44:13;96679.03;;;6.17;99.87
26083;BME280;13848;49.018;12.078;2024-03-02T05:46:41;96676.53;;;6.22;99.78
26083;BME280;13848;49.018;12.078;2024-03-02T05:49:07;96677.22;;;6.36;99.20
26083;BME280;13848;49.018;12.078;2024-03-02T05:51:33;96687.16;;;6.29;99.45
26083;BME280;13848;49.018;12.078;2024-03-02T05:53:59;96691.47;;;6.30;99.31
26083;BME280;13848;49.018;12.078;2024-03-02T05:56:25;96684.66;;;6.34;99.36
26083;BME280;13848;49.018;12.078;2024-03-02T05:58:50;96691.25;;;6.31;99.03
26083;BME280;13848;49.018;12.078;2024-03-02T06:01:16;96688.97;;;6.35;98.70
26083;BME280;13848;49.018;12.078;2024-03-02T06:03:44;96690.00;;;6.34;99.21
26083;BME280;13848;49.018;12.078;2024-03-02T06:06:10;96686.72;;;6.32;99.23
26083;BME280;13848;49.018;12.078;2024-03-02T06:08:36;96688.22;;;6.28;99.08
26083;BME280;13848;49.018;12.078;2024-03-02T06:11:02;96692.03;;;6.38;99.35
26083;BME280;13848;49.018;12.078;2024-03-02T06:13:28;96686.00;;;6.43;98.33
26083;BME280;13848;49.018;12.078;2024-03-02T06:15:54;96700.25;;;6.37;98.64
26083;BME280;13848;49.018;12.078;2024-03-02T06:18:20;96703.97;;;6.36;98.72
26083;BME280;13848;49.018;12.078;2024-03-02T06:20:47;96694.47;;;6.40;99.38
26083;BME280;13848;49.018;12.078;2024-03-02T06:23:13;96691.97;;;6.45;98.93
26083;BME280;13848;49.018;12.078;2024-03-02T06:25:39;96694.88;;;6.44;98.91
26083;BME280;13848;49.018;12.078;2024-03-02T06:28:05;96698.56;;;6.43;98.40
26083;BME280;13848;49.018;12.078;2024-03-02T06:30:31;96699.97;;;6.27;99.36
26083;BME280;13848;49.018;12.078;2024-03-02T06:32:57;96699.09;;;6.33;99.79
26083;BME280;13848;49.018;12.078;2024-03-02T06:35:23;96700.59;;;6.47;99.04
26083;BME280;13848;49.018;12.078;2024-03-02T06:37:50;96697.00;;;6.35;99.32
26083;BME280;13848;49.018;12.078;2024-03-02T06:40:16;96699.16;;;6.26;100.00
26083;BME280;13848;49.018;12.078;2024-03-02T06:42:42;96700.72;;;6.34;100.00
26083;BME280;13848;49.018;12.078;2024-03-02T06:45:08;96692.03;;;6.38;99.50
26083;BME280;13848;49.018;12.078;2024-03-02T06:47:34;96695.69;;;6.44;99.19
26083;BME280;13848;49.018;12.078;2024-03-02T06:50:00;96698.22;;;6.39;100.00
26083;BME280;13848;49.018;12.078;2024-03-02T06:52:29;96707.81;;;6.22;100.00
26083;BME280;13848;49.018;12.078;2024-03-02T06:54:56;96707.47;;;6.36;100.00
26083;BME280;13848;49.018;12.078;2024-03-02T06:57:22;96710.59;;;6.33;100.00
26083;BME280;13848;49.018;12.078;2024-03-02T06:59:48;96703.75;;;6.37;100.00
26083;BME280;13848;49.018;12.078;2024-03-02T07:02:14;96704.75;;;6.43;100.00
26083;BME280;13848;49.018;12.078;2024-03-02T07:04:40;96707.81;;;6.22;100.00
26083;BME280;13848;49.018;12.078;2024-03-02T07:07:06;96705.75;;;6.24;100.00
26083;BME280;13848;49.018;12.078;2024-03-02T07:09:32;96701.31;;;6.11;100.00
26083;BME280;13848;49.018;12.078;2024-03-02T07:11:59;96705.16;;;6.22;100.00
26083;BME280;13848;49.018;12.078;2024-03-02T07:14:25;96711.84;;;6.31;100.00
26083;BME280;13848;49.018;12.078;2024-03-02T07:16:51;96712.47;;;6.33;100.00
26083;BME280;13848;49.018;12.078;2024-03-02T07:19:17;96712.66;;;6.31;100.00
26083;BME280;13848;49.018;12.078;2024-03-02T07:21:43;96713.19;;;6.22;100.00
26083;BME280;13848;49.018;12.078;2024-03-02T07:24:09;96716.03;;;6.27;100.00
26083;BME280;13848;49.018;12.078;2024-03-02T07:26:35;96715.22;;;6.20;100.00
26083;BME280;13848;49.018;12.078;2024-03-02T07:29:02;96719.56;;;6.21;100.00
26083;BME280;13848;49.018;12.078;2024-03-02T07:31:28;96721.75;;;6.30;100.00
26083;BME280;13848;49.018;12.078;2024-03-02T07:33:54;96728.34;;;6.28;100.00
26083;BME280;13848;49.018;12.078;2024-03-02T07:36:20;96723.66;;;6.23;100.00
26083;BME280;13848;49.018;12.078;2024-03-02T07:38:46;96732.03;;;6.33;100.00
26083;BME280;13848;49.018;12.078;2024-03-02T07:41:12;96734.06;;;6.38;100.00
26083;BME280;13848;49.018;12.078;2024-03-02T07:43:38;96742.34;;;6.30;100.00
26083;BME280;13848;49.018;12.078;2024-03-02T07:46:06;96751.00;;;6.00;100.00
26083;BME280;13848;49.018;12.078;2024-03-02T07:48:32;96746.63;;;6.06;100.00
26083;BME280;13848;49.018;12.078;2024-03-02T07:50:58;96746.94;;;6.23;100.00
26083;BME280;13848;49.018;12.078;2024-03-02T07:53:24;96743.03;;;6.19;100.00
26083;BME280;13848;49.018;12.078;2024-03-02T07:55:50;96746.75;;;6.18;100.00
26083;BME280;13848;49.018;12.078;2024-03-02T07:58:16;96750.75;;;6.33;100.00
26083;BME280;13848;49.018;12.078;2024-03-02T08:00:42;96750.00;;;6.26;100.00
26083;BME280;13848;49.018;12.078;2024-03-02T08:03:09;96757.19;;;6.26;100.00
26083;BME280;13848;49.018;12.078;2024-03-02T08:05:35;96760.13;;;6.18;100.00
26083;BME280;13848;49.018;12.078;2024-03-02T08:08:01;96759.34;;;6.42;100.00
26083;BME280;13848;49.018;12.078;2024-03-02T08:10:27;96763.75;;;6.30;100.00
26083;BME280;13848;49.018;12.078;2024-03-02T08:12:53;96774.59;;;6.10;100.00
26083;BME280;13848;49.018;12.078;2024-03-02T08:15:19;96767.75;;;6.14;100.00
26083;BME280;13848;49.018;12.078;2024-03-02T08:17:45;96767.88;;;6.32;100.00
26083;BME280;13848;49.018;12.078;2024-03-02T08:20:12;96766.78;;;6.40;100.00
26083;BME280;13848;49.018;12.078;2024-03-02T08:22:38;96778.06;;;6.42;100.00
26083;BME280;13848;49.018;12.078;2024-03-02T08:25:05;96773.25;;;6.26;100.00
26083;BME280;13848;49.018;12.078;2024-03-02T08:27:32;96769.06;;;6.36;100.00
26083;BME280;13848;49.018;12.078;2024-03-02T08:29:58;96775.56;;;6.47;100.00
26083;BME280;13848;49.018;12.078;2024-03-02T08:32:24;96775.56;;;6.47;100.00
26083;BME280;13848;49.018;12.078;2024-03-02T08:34:50;96770.66;;;6.44;100.00
26083;BME280;13848;49.018;12.078;2024-03-02T08:37:17;96772.47;;;6.50;100.00
26083;BME280;13848;49.018;12.078;2024-03-02T08:39:44;96772.19;;;6.58;100.00
26083;BME280;13848;49.018;12.078;2024-03-02T08:42:11;96776.25;;;6.61;100.00
26083;BME280;13848;49.018;12.078;2024-03-02T08:44:37;96775.78;;;6.71;100.00
26083;BME280;13848;49.018;12.078;2024-03-02T08:47:03;96776.25;;;6.61;100.00
26083;BME280;13848;49.018;12.078;2024-03-02T08:49:29;96774.47;;;6.80;100.00
26083;BME280;13848;49.018;12.078;2024-03-02T08:51:55;96775.00;;;6.88;99.76
26083;BME280;13848;49.018;12.078;2024-03-02T08:54:22;96779.28;;;6.96;100.00
26083;BME280;13848;49.018;12.078;2024-03-02T08:56:48;96787.00;;;7.04;99.67
26083;BME280;13848;49.018;12.078;2024-03-02T08:59:14;96781.88;;;6.78;98.70
26083;BME280;13848;49.018;12.078;2024-03-02T09:01:40;96784.91;;;6.88;100.00
26083;BME280;13848;49.018;12.078;2024-03-02T09:04:06;96782.97;;;6.95;99.52
26083;BME280;13848;49.018;12.078;2024-03-02T09:06:32;96774.94;;;6.95;99.51
26083;BME280;13848;49.018;12.078;2024-03-02T09:08:58;96782.59;;;6.91;98.98
26083;BME280;13848;49.018;12.078;2024-03-02T09:11:26;96782.78;;;6.97;99.45
26083;BME280;13848;49.018;12.078;2024-03-02T09:13:52;96782.97;;;6.95;99.76
26083;BME280;13848;49.018;12.078;2024-03-02T09:16:18;96782.72;;;7.22;100.00
26083;BME280;13848;49.018;12.078;2024-03-02T09:18:44;96785.25;;;7.16;99.15
26083;BME280;13848;49.018;12.078;2024-03-02T09:21:10;96785.03;;;7.36;99.56
26083;BME280;13848;49.018;12.078;2024-03-02T09:23:36;96792.22;;;7.17;98.37
26083;BME280;13848;49.018;12.078;2024-03-02T09:26:02;96790.03;;;7.33;97.27
26083;BME280;13848;49.018;12.078;2024-03-02T09:28:29;96788.81;;;7.29;98.09
26083;BME280;13848;49.018;12.078;2024-03-02T09:30:55;96795.38;;;7.33;97.44
26083;BME280;13848;49.018;12.078;2024-03-02T09:33:21;96794.91;;;7.36;97.88
26083;BME280;13848;49.018;12.078;2024-03-02T09:35:47;96790.31;;;7.43;97.60
26083;BME280;13848;49.018;12.078;2024-03-02T09:38:13;96786.06;;;7.54;96.64
26083;BME280;13848;49.018;12.078;2024-03-02T09:40:40;96789.34;;;7.56;96.72
26083;BME280;13848;49.018;12.078;2024-03-02T09:43:07;96797.81;;;7.53;96.06
26083;BME280;13848;49.018;12.078;2024-03-02T09:45:35;96781.38;;;7.31;96.09
26083;BME280;13848;49.018;12.078;2024-03-02T09:48:01;96781.75;;;7.34;96.81
26083;BME280;13848;49.018;12.078;2024-03-02T09:50:27;96789.66;;;7.66;95.65
26083;BME280;13848;49.018;12.078;2024-03-02T09:52:53;96785.22;;;7.90;95.57
26083;BME280;13848;49.018;12.078;2024-03-02T09:55:19;96781.66;;;7.78;94.13
26083;BME280;13848;49.018;12.078;2024-03-02T09:57:45;96784.47;;;7.83;93.65
26083;BME280;13848;49.018;12.078;2024-03-02T10:00:13;96778.78;;;7.91;93.51
26083;BME280;13848;49.018;12.078;2024-03-02T10:02:40;96785.34;;;7.77;94.04
26083;BME280;13848;49.018;12.078;2024-03-02T10:05:06;96778.13;;;7.95;94.04
26083;BME280;13848;49.018;12.078;2024-03-02T10:07:33;96778.94;;;7.96;93.63
26083;BME280;13848;49.018;12.078;2024-03-02T10:10:12;96770.16;;;7.89;93.03
26083;BME280;13848;49.018;12.078;2024-03-02T10:12:38;96773.00;;;7.76;92.80
26083;BME280;13848;49.018;12.078;2024-03-02T10:15:05;96778.34;;;7.76;93.56
26083;BME280;13848;49.018;12.078;2024-03-02T10:17:31;96780.34;;;7.50;93.60
26083;BME280;13848;49.018;12.078;2024-03-02T10:19:58;96769.75;;;7.55;93.88
26083;BME280;13848;49.018;12.078;2024-03-02T10:22:24;96763.63;;;7.66;94.51
26083;BME280;13848;49.018;12.078;2024-03-02T10:24:50;96767.47;;;7.70;93.70
26083;BME280;13848;49.018;12.078;2024-03-02T10:27:18;96768.38;;;7.83;93.05
26083;BME280;13848;49.018;12.078;2024-03-02T10:29:46;96774.38;;;7.66;92.48
26083;BME280;13848;49.018;12.078;2024-03-02T10:32:12;96768.38;;;7.64;93.26
26083;BME280;13848;49.018;12.078;2024-03-02T10:34:40;96768.19;;;7.66;93.09
26083;BME280;13848;49.018;12.078;2024-03-02T10:37:08;96776.00;;;7.67;92.56
26083;BME280;13848;49.018;12.078;2024-03-02T10:39:34;96760.88;;;7.73;91.22
26083;BME280;13848;49.018;12.078;2024-03-02T10:42:02;96762.53;;;7.86;90.51
26083;BME280;13848;49.018;12.078;2024-03-02T10:44:28;96760.63;;;7.74;90.49
26083;BME280;13848;49.018;12.078;2024-03-02T10:46:55;96761.34;;;7.82;89.17
26083;BME280;13848;49.018;12.078;2024-03-02T10:49:23;96751.44;;;7.82;89.24
26083;BME280;13848;49.018;12.078;2024-03-02T10:51:49;96752.44;;;7.99;88.57
26083;BME280;13848;49.018;12.078;2024-03-02T10:54:16;96752.44;;;7.99;88.65
26083;BME280;13848;49.018;12.078;2024-03-02T10:56:44;96751.19;;;8.02;88.49
26083;BME280;13848;49.018;12.078;2024-03-02T10:59:16;96748.34;;;7.97;87.33
26083;BME280;13848;49.018;12.078;2024-03-02T11:01:43;96738.81;;;8.01;87.82
26083;BME280;13848;49.018;12.078;2024-03-02T11:04:09;96731.69;;;8.37;87.71
26083;BME280;13848;49.018;12.078;2024-03-02T11:06:37;96731.47;;;8.50;86.46
26083;BME280;13848;49.018;12.078;2024-03-02T11:09:07;96725.78;;;8.28;86.57
26083;BME280;13848;49.018;12.078;2024-03-02T11:11:37;96728.44;;;8.16;85.74
26083;BME280;13848;49.018;12.078;2024-03-02T11:14:04;96727.97;;;8.08;86.31
26083;BME280;13848;49.018;12.078;2024-03-02T11:16:34;96711.03;;;8.07;86.09
26083;BME280;13848;49.018;12.078;2024-03-02T11:19:02;96715.28;;;8.26;85.71
26083;BME280;13848;49.018;12.078;2024-03-02T11:21:29;96712.22;;;8.23;86.04
26083;BME280;13848;49.018;12.078;2024-03-02T11:23:55;96701.78;;;8.45;85.88
26083;BME280;13848;49.018;12.078;2024-03-02T11:26:21;96698.03;;;8.46;83.83
26083;BME280;13848;49.018;12.078;2024-03-02T11:28:49;96696.09;;;8.53;85.12
26083;BME280;13848;49.018;12.078;2024-03-02T11:31:15;96699.34;;;8.55;84.30
26083;BME280;13848;49.018;12.078;2024-03-02T11:33:41;96694.16;;;8.30;85.11
26083;BME280;13848;49.018;12.078;2024-03-02T11:36:07;96690.72;;;8.53;85.25
26083;BME280;13848;49.018;12.078;2024-03-02T11:38:34;96688.03;;;8.76;85.51
26083;BME280;13848;49.018;12.078;2024-03-02T11:41:01;96683.59;;;8.59;84.45
26083;BME280;13848;49.018;12.078;2024-03-02T11:43:28;96677.28;;;8.76;84.11
26083;BME280;13848;49.018;12.078;2024-03-02T11:45:59;96686.03;;;8.72;83.63
26083;BME280;13848;49.018;12.078;2024-03-02T11:48:25;96679.16;;;8.64;83.23
26083;BME280;13848;49.018;12.078;2024-03-02T11:50:51;96675.41;;;8.65;83.30
26083;BME280;13848;49.018;12.078;2024-03-02T11:53:19;96678.66;;;8.91;82.73
26083;BME280;13848;49.018;12.078;2024-03-02T11:55:45;96671.41;;;8.79;81.93
26083;BME280;13848;49.018;12.078;2024-03-02T11:58:12;96669.34;;;8.58;82.71
26083;BME280;13848;49.018;12.078;2024-03-02T12:00:38;96666.97;;;8.73;83.20
26083;BME280;13848;49.018;12.078;2024-03-02T12:03:07;96667.53;;;9.11;82.01
26083;BME280;13848;49.018;12.078;2024-03-02T12:05:33;96658.84;;;9.49;81.03
26083;BME280;13848;49.018;12.078;2024-03-02T12:08:01;96668.56;;;9.78;79.49
26083;BME280;13848;49.018;12.078;2024-03-02T12:10:28;96664.81;;;9.22;79.67
26083;BME280;13848;49.018;12.078;2024-03-02T12:12:57;96662.41;;;9.38;79.54
26083;BME280;13848;49.018;12.078;2024-03-02T12:15:25;96656.09;;;9.32;79.73
26083;BME280;13848;49.018;12.078;2024-03-02T12:17:53;96651.19;;;9.41;79.31
26083;BME280;13848;49.018;12.078;2024-03-02T12:20:21;96643.97;;;10.03;76.80
26083;BME280;13848;49.018;12.078;2024-03-02T12:22:47;96650.31;;;10.81;78.28
26083;BME280;13848;49.018;12.078;2024-03-02T12:25:13;96647.44;;;11.10;74.66
26083;BME280;13848;49.018;12.078;2024-03-02T12:27:39;96644.06;;;10.98;75.05
26083;BME280;13848;49.018;12.078;2024-03-02T12:30:06;96640.16;;;10.88;74.54
26083;BME280;13848;49.018;12.078;2024-03-02T12:32:32;96634.44;;;11.07;73.23
26083;BME280;13848;49.018;12.078;2024-03-02T12:34:58;96633.06;;;10.44;72.95
26083;BME280;13848;49.018;12.078;2024-03-02T12:37:26;96627.16;;;10.47;73.74
26083;BME280;13848;49.018;12.078;2024-03-02T12:39:52;96624.38;;;10.42;74.11
26083;BME280;13848;49.018;12.078;2024-03-02T12:42:18;96624.25;;;10.70;75.28
26083;BME280;13848;49.018;12.078;2024-03-02T12:44:44;96619.78;;;10.98;73.71
26083;BME280;13848;49.018;12.078;2024-03-02T12:47:10;96614.19;;;11.26;72.61
26083;BME280;13848;49.018;12.078;2024-03-02T12:49:37;96610.31;;;11.66;70.81
26083;BME280;13848;49.018;12.078;2024-03-02T12:52:05;96603.94;;;11.50;71.27